createdAt,value
2022-11-10T00:02:20.276Z,7.72
2022-11-10T00:05:06.172Z,8.38
2022-11-10T00:07:51.425Z,8.40
2022-11-10T00:10:57.564Z,7.68
2022-11-10T00:14:01.593Z,9.00
2022-11-10T00:17:02.031Z,8.93
2022-11-10T00:19:47.516Z,6.28
2022-11-10T00:22:38.124Z,8.82
2022-11-10T00:25:24.634Z,8.15
2022-11-10T00:28:10.289Z,9.38
2022-11-10T00:30:55.759Z,8.07
2022-11-10T00:33:43.273Z,8.02
2022-11-10T00:36:28.894Z,13.70
2022-11-10T00:39:14.399Z,10.27
2022-11-10T00:42:00.011Z,7.25
2022-11-10T00:44:46.742Z,8.30
2022-11-10T00:47:32.055Z,8.45
2022-11-10T00:50:17.725Z,9.20
2022-11-10T00:53:03.227Z,8.32
2022-11-10T00:55:49.106Z,7.40
2022-11-10T00:58:34.583Z,9.90
2022-11-10T01:01:21.711Z,11.27
2022-11-10T01:04:06.943Z,10.32
2022-11-10T01:06:52.944Z,8.52
2022-11-10T01:09:38.435Z,10.23
2022-11-10T01:12:23.868Z,9.60
2022-11-10T01:15:10.121Z,8.30
2022-11-10T01:17:56.714Z,7.93
2022-11-10T01:20:41.926Z,7.47
2022-11-10T01:23:27.878Z,9.25
2022-11-10T01:26:14.441Z,10.43
2022-11-10T01:28:59.619Z,11.18
2022-11-10T01:31:45.406Z,10.70
2022-11-10T01:34:30.511Z,10.18
2022-11-10T01:37:16.188Z,8.23
2022-11-10T01:40:01.718Z,11.77
2022-11-10T01:42:56.414Z,10.32
2022-11-10T01:46:00.791Z,11.90
2022-11-10T01:49:00.601Z,10.55
2022-11-10T01:51:56.647Z,8.32
2022-11-10T01:54:48.389Z,9.45
2022-11-10T01:57:34.477Z,7.70
2022-11-10T02:00:20.915Z,7.95
2022-11-10T02:03:27.142Z,7.50
2022-11-10T02:06:13.843Z,8.25
2022-11-10T02:08:59.558Z,9.18
2022-11-10T02:11:46.389Z,8.38
2022-11-10T02:14:31.784Z,8.85
2022-11-10T02:17:17.407Z,10.60
2022-11-10T02:20:06.928Z,10.27
2022-11-10T02:22:52.495Z,6.65
2022-11-10T02:25:38.252Z,7.68
2022-11-10T02:28:24.655Z,7.63
2022-11-10T02:31:10.028Z,7.35
2022-11-10T02:33:55.761Z,10.05
2022-11-10T02:36:41.288Z,8.40
2022-11-10T02:39:26.919Z,7.68
2022-11-10T02:42:12.396Z,6.90
2022-11-10T02:44:58.280Z,5.82
2022-11-10T02:47:43.820Z,8.38
2022-11-10T02:50:29.269Z,6.57
2022-11-10T02:53:15.078Z,6.85
2022-11-10T02:56:00.529Z,8.43
2022-11-10T02:58:45.842Z,8.18
2022-11-10T03:01:31.530Z,9.93
2022-11-10T03:04:17.049Z,10.88
2022-11-10T03:07:02.665Z,8.10
2022-11-10T03:09:48.138Z,6.97
2022-11-10T03:12:33.824Z,7.80
2022-11-10T03:15:19.405Z,12.52
2022-11-10T03:18:05.701Z,8.27
2022-11-10T03:20:51.670Z,6.82
2022-11-10T03:23:37.513Z,6.75
2022-11-10T03:26:22.986Z,6.82
2022-11-10T03:29:08.766Z,7.43
2022-11-10T03:31:54.464Z,6.32
2022-11-10T03:34:39.986Z,7.88
2022-11-10T03:37:25.428Z,5.70
2022-11-10T03:40:11.414Z,10.77
2022-11-10T03:42:57.062Z,7.03
2022-11-10T03:45:45.035Z,7.10
2022-11-10T03:48:30.670Z,8.02
2022-11-10T03:51:16.802Z,6.05
2022-11-10T03:54:02.327Z,5.80
2022-11-10T03:56:47.841Z,5.88
2022-11-10T03:59:33.207Z,5.65
2022-11-10T04:02:18.701Z,5.32
2022-11-10T04:05:23.122Z,5.40
2022-11-10T04:08:33.365Z,5.93
2022-11-10T04:11:37.859Z,4.47
2022-11-10T04:14:41.743Z,5.35
2022-11-10T04:17:27.072Z,5.47
2022-11-10T04:20:12.687Z,6.53
2022-11-10T04:23:16.446Z,4.32
2022-11-10T04:26:20.195Z,5.68
2022-11-10T04:29:11.085Z,6.68
2022-11-10T04:31:56.660Z,4.78
2022-11-10T04:34:41.841Z,5.78
2022-11-10T04:37:27.145Z,7.25
2022-11-10T04:40:12.754Z,5.32
2022-11-10T04:42:58.095Z,5.78
2022-11-10T04:45:44.263Z,5.05
2022-11-10T04:48:30.061Z,6.38
2022-11-10T04:51:17.341Z,6.43
2022-11-10T04:54:02.949Z,5.35
2022-11-10T04:56:48.516Z,26.55
2022-11-10T04:59:34.823Z,7.57
2022-11-10T05:02:20.267Z,5.90
2022-11-10T05:05:06.374Z,5.07
2022-11-10T05:07:51.894Z,5.47
2022-11-10T05:10:38.503Z,5.43
2022-11-10T05:13:24.302Z,6.10
2022-11-10T05:16:10.183Z,8.18
2022-11-10T05:18:58.203Z,7.75
2022-11-10T05:21:43.435Z,5.95
2022-11-10T05:24:29.177Z,5.28
2022-11-10T05:27:14.609Z,6.25
2022-11-10T05:29:59.906Z,6.47
2022-11-10T05:32:45.409Z,6.35
2022-11-10T05:35:31.372Z,4.85
2022-11-10T05:38:17.311Z,6.80
2022-11-10T05:41:02.884Z,6.72
2022-11-10T05:43:49.065Z,5.90
2022-11-10T05:46:34.587Z,5.00
2022-11-10T05:49:20.295Z,7.07
2022-11-10T05:52:05.830Z,5.38
2022-11-10T05:54:51.292Z,5.32
2022-11-10T05:57:37.086Z,7.45
2022-11-10T06:00:25.135Z,4.05
2022-11-10T06:03:14.945Z,5.03
2022-11-10T06:06:00.375Z,6.05
2022-11-10T06:08:46.057Z,7.57
2022-11-10T06:11:31.567Z,5.50
2022-11-10T06:14:17.188Z,6.15
2022-11-10T06:17:02.809Z,5.10
2022-11-10T06:19:48.311Z,4.75
2022-11-10T06:22:34.224Z,5.03
2022-11-10T06:25:19.887Z,5.20
2022-11-10T06:28:06.552Z,5.28
2022-11-10T06:30:52.053Z,5.38
2022-11-10T06:33:37.875Z,7.53
2022-11-10T06:36:23.193Z,8.00
2022-11-10T06:39:09.201Z,6.05
2022-11-10T06:41:54.430Z,4.43
2022-11-10T06:44:39.862Z,5.50
2022-11-10T06:47:25.509Z,4.50
2022-11-10T06:50:10.994Z,5.68
2022-11-10T06:52:57.846Z,7.40
2022-11-10T06:55:43.419Z,7.82
2022-11-10T06:58:29.074Z,6.28
2022-11-10T07:01:17.645Z,6.15
2022-11-10T07:04:19.410Z,4.25
2022-11-10T07:07:05.818Z,4.68
2022-11-10T07:09:51.064Z,7.22
2022-11-10T07:12:36.799Z,7.10
2022-11-10T07:15:22.338Z,8.00
2022-11-10T07:18:08.039Z,5.88
2022-11-10T07:20:53.306Z,7.18
2022-11-10T07:23:38.874Z,6.20
2022-11-10T07:26:24.445Z,5.85
2022-11-10T07:29:09.918Z,5.00
2022-11-10T07:31:56.435Z,4.88
2022-11-10T07:34:42.017Z,5.47
2022-11-10T07:37:27.615Z,8.30
2022-11-10T07:40:12.981Z,7.45
2022-11-10T07:42:59.118Z,6.43
2022-11-10T07:45:44.544Z,6.55
2022-11-10T07:48:29.870Z,7.68
2022-11-10T07:51:15.212Z,6.35
2022-11-10T07:54:00.872Z,7.15
2022-11-10T07:56:46.244Z,7.82
2022-11-10T07:59:31.656Z,8.57
2022-11-10T08:02:17.393Z,8.70
2022-11-10T08:05:02.706Z,5.07
2022-11-10T08:07:48.581Z,6.88
2022-11-10T08:10:35.839Z,4.82
2022-11-10T08:13:21.750Z,5.82
2022-11-10T08:16:07.641Z,7.00
2022-11-10T08:18:52.917Z,8.13
2022-11-10T08:21:38.493Z,7.63
2022-11-10T08:24:23.654Z,9.80
2022-11-10T08:27:09.314Z,8.55
2022-11-10T08:29:54.664Z,9.05
2022-11-10T08:32:40.136Z,8.98
2022-11-10T08:35:26.795Z,10.65
2022-11-10T08:38:16.800Z,9.30
2022-11-10T08:41:02.372Z,8.38
2022-11-10T08:43:48.183Z,7.35
2022-11-10T08:46:33.892Z,6.50
2022-11-10T08:49:19.382Z,4.78
2022-11-10T08:52:05.102Z,6.70
2022-11-10T08:54:50.330Z,5.78
2022-11-10T08:57:35.832Z,5.47
2022-11-10T09:00:21.504Z,7.00
2022-11-10T09:03:11.765Z,5.53
2022-11-10T09:05:58.750Z,6.65
2022-11-10T09:08:44.229Z,7.10
2022-11-10T09:11:30.913Z,4.63
2022-11-10T09:14:16.468Z,5.35
2022-11-10T09:17:02.176Z,4.68
2022-11-10T09:19:47.914Z,6.68
2022-11-10T09:22:35.994Z,6.43
2022-11-10T09:25:22.084Z,4.78
2022-11-10T09:28:15.326Z,3.60
2022-11-10T09:31:00.915Z,3.08
2022-11-10T09:33:46.123Z,3.40
2022-11-10T09:36:31.632Z,5.50
2022-11-10T09:39:18.347Z,6.53
2022-11-10T09:42:06.596Z,3.55
2022-11-10T09:45:06.892Z,4.60
2022-11-10T09:47:58.626Z,2.17
2022-11-10T09:50:46.958Z,4.70
2022-11-10T09:53:41.470Z,3.33
2022-11-10T09:56:33.482Z,2.40
2022-11-10T09:59:33.476Z,1.63
2022-11-10T10:02:43.141Z,3.38
2022-11-10T10:06:02.362Z,2.22
2022-11-10T10:08:47.763Z,2.85
2022-11-10T10:11:54.306Z,1.77
2022-11-10T10:14:58.178Z,1.90
2022-11-10T10:18:07.175Z,1.58
2022-11-10T10:21:17.197Z,4.82
2022-11-10T10:24:10.268Z,1.58
2022-11-10T10:27:03.403Z,2.55
2022-11-10T10:29:49.598Z,5.38
2022-11-10T10:32:35.339Z,1.25
2022-11-10T10:35:20.579Z,1.40
2022-11-10T10:38:16.376Z,1.20
2022-11-10T10:41:27.980Z,1.95
2022-11-10T10:44:16.419Z,1.33
2022-11-10T10:47:02.997Z,2.75
2022-11-10T10:49:48.673Z,1.45
2022-11-10T10:52:34.391Z,1.35
2022-11-10T10:55:19.839Z,2.53
2022-11-10T10:58:19.308Z,3.58
2022-11-10T11:01:25.408Z,2.65
2022-11-10T11:04:35.470Z,2.88
2022-11-10T11:07:24.030Z,4.28
2022-11-10T11:10:23.500Z,2.38
2022-11-10T11:13:30.109Z,3.83
2022-11-10T11:16:15.310Z,3.75
2022-11-10T11:19:01.203Z,2.90
2022-11-10T11:21:46.595Z,7.18
2022-11-10T11:25:06.263Z,4.68
2022-11-10T11:28:07.016Z,3.38
2022-11-10T11:31:04.759Z,2.97
2022-11-10T11:34:03.482Z,4.43
2022-11-10T11:36:57.913Z,2.30
2022-11-10T11:40:12.752Z,3.50
2022-11-10T11:43:25.725Z,3.55
2022-11-10T11:46:20.369Z,2.15
2022-11-10T11:49:24.808Z,6.75
2022-11-10T11:52:22.310Z,2.13
2022-11-10T11:55:28.224Z,2.70
2022-11-10T11:58:37.055Z,2.83
2022-11-10T12:01:58.431Z,3.78
2022-11-10T12:05:04.203Z,4.15
2022-11-10T12:08:07.673Z,17.50
2022-11-10T12:11:12.843Z,2.58
2022-11-10T12:14:24.799Z,2.88
2022-11-10T12:17:18.747Z,3.55
2022-11-10T12:20:26.126Z,5.55
2022-11-10T12:23:23.072Z,5.30
2022-11-10T12:26:08.688Z,7.90
2022-11-10T12:29:06.570Z,3.15
2022-11-10T12:31:57.697Z,3.88
2022-11-10T12:34:55.488Z,5.03
2022-11-10T12:38:04.277Z,5.80
2022-11-10T12:40:52.578Z,4.82
2022-11-10T12:43:40.988Z,5.00
2022-11-10T12:46:26.427Z,3.75
2022-11-10T12:49:30.336Z,6.75
2022-11-10T12:52:23.310Z,12.75
2022-11-10T12:55:13.699Z,5.90
2022-11-10T12:58:01.480Z,6.40
2022-11-10T13:01:18.724Z,3.10
2022-11-10T13:04:05.611Z,3.92
2022-11-10T13:06:55.458Z,3.03
2022-11-10T13:09:43.858Z,3.15
2022-11-10T13:12:29.204Z,7.35
2022-11-10T13:15:39.525Z,3.08
2022-11-10T13:18:44.819Z,4.03
2022-11-10T13:22:09.427Z,4.60
2022-11-10T13:25:33.547Z,2.78
2022-11-10T13:28:47.815Z,3.35
2022-11-10T13:31:33.361Z,5.47
2022-11-10T13:34:21.734Z,2.28
2022-11-10T13:37:29.363Z,6.18
2022-11-10T13:40:19.813Z,2.45
2022-11-10T13:43:25.046Z,2.78
2022-11-10T13:46:10.519Z,2.13
2022-11-10T13:49:16.873Z,2.70
2022-11-10T13:52:08.279Z,4.20
2022-11-10T13:55:41.145Z,3.55
2022-11-10T13:58:33.196Z,4.05
2022-11-10T14:01:18.701Z,4.00
2022-11-10T14:04:05.049Z,2.25
2022-11-10T14:06:55.515Z,2.90
2022-11-10T14:09:45.920Z,3.20
2022-11-10T14:12:44.267Z,2.47
2022-11-10T14:15:35.449Z,4.30
2022-11-10T14:18:25.696Z,3.10
2022-11-10T14:21:22.398Z,2.83
2022-11-10T14:24:24.669Z,4.60
2022-11-10T14:27:32.245Z,4.00
2022-11-10T14:30:24.676Z,2.80
2022-11-10T14:33:13.102Z,5.07
2022-11-10T14:36:04.944Z,3.08
2022-11-10T14:38:52.001Z,2.17
2022-11-10T14:41:46.878Z,3.88
2022-11-10T14:44:34.118Z,6.88
2022-11-10T14:47:31.047Z,2.75
2022-11-10T14:50:22.912Z,4.15
2022-11-10T14:53:12.168Z,3.38
2022-11-10T14:55:59.040Z,2.75
2022-11-10T14:58:46.027Z,2.20
2022-11-10T15:01:36.941Z,4.03
2022-11-10T15:04:43.050Z,2.75
2022-11-10T15:07:31.659Z,2.42
2022-11-10T15:10:24.328Z,7.60
2022-11-10T15:13:13.669Z,4.50
2022-11-10T15:16:21.141Z,5.32
2022-11-10T15:19:30.407Z,4.07
2022-11-10T15:22:29.638Z,3.05
2022-11-10T15:25:21.535Z,3.67
2022-11-10T15:28:18.299Z,4.30
2022-11-10T15:31:07.384Z,3.83
2022-11-10T15:33:55.969Z,2.60
2022-11-10T15:36:41.369Z,4.47
2022-11-10T15:39:27.922Z,5.35
2022-11-10T15:42:22.057Z,4.53
2022-11-10T15:45:07.903Z,6.90
2022-11-10T15:47:53.135Z,4.30
2022-11-10T15:50:39.826Z,5.63
2022-11-10T15:53:29.991Z,4.22
2022-11-10T15:56:18.407Z,3.67
2022-11-10T15:59:04.122Z,4.53
2022-11-10T16:01:51.261Z,4.10
2022-11-10T16:04:37.027Z,3.90
2022-11-10T16:07:22.618Z,3.72
2022-11-10T16:10:08.347Z,3.03
2022-11-10T16:12:53.778Z,4.43
2022-11-10T16:15:39.855Z,2.85
2022-11-10T16:18:28.329Z,3.80
2022-11-10T16:21:15.132Z,7.20
2022-11-10T16:24:00.659Z,3.17
2022-11-10T16:26:46.247Z,3.25
2022-11-10T16:29:33.471Z,3.83
2022-11-10T16:32:18.690Z,3.70
2022-11-10T16:35:04.650Z,6.32
2022-11-10T16:37:50.048Z,2.65
2022-11-10T16:40:35.366Z,3.47
2022-11-10T16:43:21.660Z,4.88
2022-11-10T16:46:16.920Z,3.97
2022-11-10T16:49:04.712Z,4.07
2022-11-10T16:51:50.172Z,3.08
2022-11-10T16:54:35.831Z,3.40
2022-11-10T16:57:21.198Z,6.05
2022-11-10T17:00:07.421Z,4.93
2022-11-10T17:03:04.498Z,4.70
2022-11-10T17:05:49.902Z,4.32
2022-11-10T17:08:35.972Z,6.38
2022-11-10T17:11:22.220Z,5.70
2022-11-10T17:14:10.454Z,4.28
2022-11-10T17:16:58.780Z,5.50
2022-11-10T17:19:45.161Z,5.47
2022-11-10T17:22:33.613Z,8.75
2022-11-10T17:25:26.999Z,9.25
2022-11-10T17:28:14.077Z,11.25
2022-11-10T17:30:59.670Z,7.30
2022-11-10T17:33:45.016Z,6.55
2022-11-10T17:36:32.967Z,5.07
2022-11-10T17:39:18.786Z,5.32
2022-11-10T17:42:04.625Z,8.75
2022-11-10T17:44:50.023Z,7.20
2022-11-10T17:47:35.326Z,6.90
2022-11-10T17:50:23.028Z,5.13
2022-11-10T17:53:23.125Z,8.52
2022-11-10T17:56:08.787Z,8.38
2022-11-10T17:58:54.189Z,7.25
2022-11-10T18:01:43.114Z,10.43
2022-11-10T18:04:28.324Z,7.40
2022-11-10T18:07:14.064Z,5.35
2022-11-10T18:09:59.498Z,7.75
2022-11-10T18:12:45.190Z,8.63
2022-11-10T18:15:30.425Z,10.75
2022-11-10T18:18:17.799Z,7.95
2022-11-10T18:21:05.037Z,8.55
2022-11-10T18:23:50.323Z,10.57
2022-11-10T18:26:37.094Z,8.45
2022-11-10T18:29:22.654Z,8.43
2022-11-10T18:32:08.096Z,12.35
2022-11-10T18:34:53.718Z,11.30
2022-11-10T18:37:39.436Z,10.82
2022-11-10T18:40:25.298Z,10.57
2022-11-10T18:43:10.607Z,10.73
2022-11-10T18:45:56.163Z,8.27
2022-11-10T18:48:42.549Z,8.05
2022-11-10T18:51:32.233Z,9.18
2022-11-10T18:54:17.801Z,10.43
2022-11-10T18:57:03.288Z,14.32
2022-11-10T18:59:48.877Z,8.55
2022-11-10T19:02:34.529Z,10.02
2022-11-10T19:05:20.176Z,9.43
2022-11-10T19:08:07.124Z,10.82
2022-11-10T19:10:53.321Z,13.10
2022-11-10T19:13:38.997Z,11.02
2022-11-10T19:16:24.676Z,9.73
2022-11-10T19:19:10.854Z,12.35
2022-11-10T19:21:56.279Z,11.55
2022-11-10T19:25:00.918Z,10.82
2022-11-10T19:27:47.012Z,10.68
2022-11-10T19:30:32.571Z,10.07
2022-11-10T19:33:17.980Z,9.35
2022-11-10T19:36:08.284Z,7.55
2022-11-10T19:38:55.082Z,11.63
2022-11-10T19:41:43.826Z,8.77
2022-11-10T19:44:29.326Z,8.38
2022-11-10T19:47:14.968Z,8.30
2022-11-10T19:50:00.173Z,14.95
2022-11-10T19:52:45.835Z,10.02
2022-11-10T19:55:34.526Z,10.38
2022-11-10T19:58:19.895Z,13.00
2022-11-10T20:01:07.061Z,8.68
2022-11-10T20:03:52.605Z,8.80
2022-11-10T20:06:38.426Z,8.45
2022-11-10T20:09:23.611Z,8.95
2022-11-10T20:12:10.429Z,9.23
2022-11-10T20:14:55.891Z,9.85
2022-11-10T20:17:42.136Z,10.75
2022-11-10T20:20:27.730Z,9.43
2022-11-10T20:23:14.015Z,10.40
2022-11-10T20:26:13.308Z,8.13
2022-11-10T20:28:58.930Z,10.52
2022-11-10T20:31:44.500Z,9.05
2022-11-10T20:34:29.931Z,9.73
2022-11-10T20:37:15.640Z,10.23
2022-11-10T20:40:02.488Z,10.10
2022-11-10T20:42:48.080Z,10.00
2022-11-10T20:45:33.418Z,9.77
2022-11-10T20:48:18.601Z,7.88
2022-11-10T20:51:13.082Z,10.30
2022-11-10T20:54:00.282Z,10.95
2022-11-10T20:56:46.159Z,13.07
2022-11-10T20:59:31.388Z,12.25
2022-11-10T21:02:17.007Z,9.20
2022-11-10T21:05:02.501Z,11.38
2022-11-10T21:07:48.097Z,9.15
2022-11-10T21:10:33.798Z,9.30
2022-11-10T21:13:19.639Z,8.98
2022-11-10T21:16:06.742Z,9.90
2022-11-10T21:18:56.044Z,9.20
2022-11-10T21:21:41.391Z,9.13
2022-11-10T21:24:28.173Z,10.27
2022-11-10T21:27:13.899Z,13.80
2022-11-10T21:29:59.495Z,11.40
2022-11-10T21:32:44.803Z,8.20
2022-11-10T21:35:35.323Z,8.93
2022-11-10T21:38:23.134Z,9.18
2022-11-10T21:41:08.506Z,9.68
2022-11-10T21:43:54.160Z,10.45
2022-11-10T21:46:39.748Z,9.02
2022-11-10T21:49:25.464Z,11.55
2022-11-10T21:52:10.810Z,8.02
2022-11-10T21:54:56.368Z,7.18
2022-11-10T21:57:41.731Z,8.07
2022-11-10T22:00:27.807Z,9.60
2022-11-10T22:03:13.168Z,12.50
2022-11-10T22:06:05.548Z,10.15
2022-11-10T22:08:51.433Z,12.25
2022-11-10T22:11:55.660Z,10.82
2022-11-10T22:14:59.416Z,10.65
2022-11-10T22:18:03.216Z,9.15
2022-11-10T22:20:48.538Z,9.63
2022-11-10T22:23:52.417Z,7.90
2022-11-10T22:26:37.972Z,8.73
2022-11-10T22:29:30.100Z,10.60
2022-11-10T22:32:16.953Z,7.83
2022-11-10T22:35:02.639Z,8.43
2022-11-10T22:37:48.129Z,8.27
2022-11-10T22:40:52.586Z,8.85
2022-11-10T22:43:56.386Z,11.18
2022-11-10T22:46:46.068Z,8.48
2022-11-10T22:49:31.657Z,8.25
2022-11-10T22:52:17.189Z,7.95
2022-11-10T22:55:02.784Z,10.18
2022-11-10T22:57:48.275Z,8.63
2022-11-10T23:00:33.790Z,9.75
2022-11-10T23:03:19.422Z,9.75
2022-11-10T23:06:05.108Z,9.07
2022-11-10T23:08:50.547Z,7.20
2022-11-10T23:11:36.236Z,9.07
2022-11-10T23:14:21.815Z,8.88
2022-11-10T23:17:08.053Z,9.65
2022-11-10T23:19:53.225Z,8.20
2022-11-10T23:22:38.793Z,8.55
2022-11-10T23:25:24.383Z,9.48
2022-11-10T23:28:09.965Z,12.23
2022-11-10T23:31:06.088Z,16.38
2022-11-10T23:33:54.243Z,21.60
2022-11-10T23:36:39.781Z,94.82
2022-11-10T23:39:25.322Z,79.95
2022-11-10T23:42:10.929Z,51.60
2022-11-10T23:44:56.574Z,24.63
2022-11-10T23:47:41.980Z,10.63
2022-11-10T23:50:27.527Z,83.93
2022-11-10T23:53:14.103Z,35.80
2022-11-10T23:56:04.071Z,13.23
2022-11-10T23:58:49.826Z,14.45
